sensor_id;sensor_type;location;lat;lon;timestamp;pressure;altitude;pressure_sealevel;temperature;humidity
71059;BME280;70265;47.576;19.270;2023-05-22T00:00:08;98849.66;;;17.10;72.22
71059;BME280;70265;47.576;19.270;2023-05-22T00:01:12;98849.66;;;17.10;72.27
71059;BME280;70265;47.576;19.270;2023-05-22T00:02:15;98842.50;;;17.04;72.46
71059;BME280;70265;47.576;19.270;2023-05-22T00:03:22;98849.63;;;17.03;72.32
71059;BME280;70265;47.576;19.270;2023-05-22T00:04:24;98849.97;;;16.94;73.57
71059;BME280;70265;47.576;19.270;2023-05-22T00:05:29;98857.22;;;16.85;74.87
71059;BME280;70265;47.576;19.270;2023-05-22T00:06:31;98855.75;;;16.76;75.60
71059;BME280;70265;47.576;19.270;2023-05-22T00:07:35;98855.63;;;16.63;77.61
71059;BME280;70265;47.576;19.270;2023-05-22T00:08:39;98856.94;;;16.52;78.03
71059;BME280;70265;47.576;19.270;2023-05-22T00:09:43;98863.19;;;16.45;77.91
71059;BME280;70265;47.576;19.270;2023-05-22T00:10:44;98859.91;;;16.43;78.12
71059;BME280;70265;47.576;19.270;2023-05-22T00:11:48;98860.84;;;16.35;79.72
71059;BME280;70265;47.576;19.270;2023-05-22T00:12:49;98865.63;;;16.25;80.21
71059;BME280;70265;47.576;19.270;2023-05-22T00:13:53;98858.09;;;16.22;79.81
71059;BME280;70265;47.576;19.270;2023-05-22T00:14:54;98861.09;;;16.19;80.10
71059;BME280;70265;47.576;19.270;2023-05-22T00:15:58;98863.75;;;16.19;79.83
71059;BME280;70265;47.576;19.270;2023-05-22T00:16:59;98862.28;;;16.16;79.88
71059;BME280;70265;47.576;19.270;2023-05-22T00:18:03;98859.84;;;16.15;79.67
71059;BME280;70265;47.576;19.270;2023-05-22T00:19:05;98865.13;;;16.15;79.40
71059;BME280;70265;47.576;19.270;2023-05-22T00:20:13;98864.84;;;16.10;79.56
71059;BME280;70265;47.576;19.270;2023-05-22T00:21:14;98860.78;;;16.07;79.73
71059;BME280;70265;47.576;19.270;2023-05-22T00:22:18;98858.75;;;16.09;79.64
71059;BME280;70265;47.576;19.270;2023-05-22T00:23:19;98858.44;;;15.98;81.07
71059;BME280;70265;47.576;19.270;2023-05-22T00:24:26;98856.25;;;15.87;81.21
71059;BME280;70265;47.576;19.270;2023-05-22T00:25:27;98858.16;;;15.93;80.85
71059;BME280;70265;47.576;19.270;2023-05-22T00:26:31;98856.91;;;15.89;81.47
71059;BME280;70265;47.576;19.270;2023-05-22T00:27:32;98861.56;;;15.87;81.80
71059;BME280;70265;47.576;19.270;2023-05-22T00:28:36;98860.94;;;15.85;81.93
71059;BME280;70265;47.576;19.270;2023-05-22T00:29:37;98859.66;;;15.81;83.05
71059;BME280;70265;47.576;19.270;2023-05-22T00:30:41;98856.19;;;15.80;83.05
71059;BME280;70265;47.576;19.270;2023-05-22T00:31:42;98869.72;;;15.70;84.30
71059;BME280;70265;47.576;19.270;2023-05-22T00:32:46;98866.16;;;15.63;84.58
71059;BME280;70265;47.576;19.270;2023-05-22T00:33:47;98870.25;;;15.66;84.73
71059;BME280;70265;47.576;19.270;2023-05-22T00:34:51;98869.63;;;15.64;84.83
71059;BME280;70265;47.576;19.270;2023-05-22T00:35:52;98863.88;;;15.60;85.20
71059;BME280;70265;47.576;19.270;2023-05-22T00:36:56;98867.81;;;15.50;86.12
71059;BME280;70265;47.576;19.270;2023-05-22T00:37:57;98871.69;;;15.39;85.53
71059;BME280;70265;47.576;19.270;2023-05-22T00:39:01;98872.59;;;15.32;85.96
71059;BME280;70265;47.576;19.270;2023-05-22T00:40:09;98862.84;;;15.32;85.77
71059;BME280;70265;47.576;19.270;2023-05-22T00:41:15;98864.22;;;15.28;85.97
71059;BME280;70265;47.576;19.270;2023-05-22T00:42:19;98863.69;;;15.33;85.77
71059;BME280;70265;47.576;19.270;2023-05-22T00:43:20;98870.53;;;15.27;85.66
71059;BME280;70265;47.576;19.270;2023-05-22T00:44:24;98871.31;;;15.27;85.53
71059;BME280;70265;47.576;19.270;2023-05-22T00:45:25;98865.41;;;15.25;85.48
71059;BME280;70265;47.576;19.270;2023-05-22T00:46:29;98859.13;;;15.26;85.57
71059;BME280;70265;47.576;19.270;2023-05-22T00:47:30;98866.88;;;15.28;85.60
71059;BME280;70265;47.576;19.270;2023-05-22T00:48:34;98866.03;;;15.27;85.58
71059;BME280;70265;47.576;19.270;2023-05-22T00:49:35;98860.13;;;15.25;86.09
71059;BME280;70265;47.576;19.270;2023-05-22T00:50:39;98869.03;;;15.24;86.64
71059;BME280;70265;47.576;19.270;2023-05-22T00:51:41;98868.59;;;15.21;86.77
71059;BME280;70265;47.576;19.270;2023-05-22T00:52:46;98864.69;;;15.17;86.33
71059;BME280;70265;47.576;19.270;2023-05-22T00:53:47;98863.50;;;15.19;86.35
71059;BME280;70265;47.576;19.270;2023-05-22T00:54:52;98868.59;;;15.21;85.95
71059;BME280;70265;47.576;19.270;2023-05-22T00:55:56;98860.50;;;15.22;85.48
71059;BME280;70265;47.576;19.270;2023-05-22T00:57:01;98863.59;;;15.26;85.53
71059;BME280;70265;47.576;19.270;2023-05-22T00:58:04;98854.84;;;15.25;85.05
71059;BME280;70265;47.576;19.270;2023-05-22T00:59:09;98859.13;;;15.26;85.21
71059;BME280;70265;47.576;19.270;2023-05-22T01:00:12;98854.91;;;15.17;85.79
71059;BME280;70265;47.576;19.270;2023-05-22T01:01:17;98853.91;;;15.04;86.51
71059;BME280;70265;47.576;19.270;2023-05-22T01:02:19;98856.75;;;15.02;86.30
71059;BME280;70265;47.576;19.270;2023-05-22T01:03:23;98851.00;;;14.99;86.59
71059;BME280;70265;47.576;19.270;2023-05-22T01:04:25;98850.72;;;14.94;87.07
71059;BME280;70265;47.576;19.270;2023-05-22T01:05:32;98847.81;;;14.89;87.41
71059;BME280;70265;47.576;19.270;2023-05-22T01:06:34;98852.47;;;14.87;87.12
71059;BME280;70265;47.576;19.270;2023-05-22T01:07:37;98853.97;;;14.81;87.62
71059;BME280;70265;47.576;19.270;2023-05-22T01:08:39;98854.88;;;14.73;87.99
71059;BME280;70265;47.576;19.270;2023-05-22T01:09:43;98852.88;;;14.75;88.10
71059;BME280;70265;47.576;19.270;2023-05-22T01:10:45;98849.78;;;14.72;88.40
71059;BME280;70265;47.576;19.270;2023-05-22T01:11:58;98853.59;;;14.69;88.25
71059;BME280;70265;47.576;19.270;2023-05-22T01:14:32;98858.66;;;14.56;89.79
71059;BME280;70265;47.576;19.270;2023-05-22T01:15:39;98853.09;;;14.51;90.66
71059;BME280;70265;47.576;19.270;2023-05-22T01:16:51;98861.66;;;14.53;90.28
71059;BME280;70265;47.576;19.270;2023-05-22T01:18:06;98860.72;;;14.46;92.41
71059;BME280;70265;47.576;19.270;2023-05-22T01:19:36;98865.81;;;14.48;93.67
71059;BME280;70265;47.576;19.270;2023-05-22T01:20:44;98858.63;;;14.42;95.26
71059;BME280;70265;47.576;19.270;2023-05-22T01:21:57;98863.44;;;14.38;94.03
71059;BME280;70265;47.576;19.270;2023-05-22T01:23:34;98861.63;;;14.39;91.23
71059;BME280;70265;47.576;19.270;2023-05-22T01:24:54;98858.06;;;14.46;89.59
71059;BME280;70265;47.576;19.270;2023-05-22T01:26:20;98854.63;;;14.46;89.81
71059;BME280;70265;47.576;19.270;2023-05-22T01:27:39;98853.81;;;14.45;90.18
71059;BME280;70265;47.576;19.270;2023-05-22T01:30:53;98851.09;;;14.53;89.38
71059;BME280;70265;47.576;19.270;2023-05-22T01:32:03;98862.66;;;14.52;89.75
71059;BME280;70265;47.576;19.270;2023-05-22T01:33:06;98861.28;;;14.56;89.33
71059;BME280;70265;47.576;19.270;2023-05-22T01:34:12;98853.44;;;14.48;91.02
71059;BME280;70265;47.576;19.270;2023-05-22T01:35:16;98859.50;;;14.34;92.02
71059;BME280;70265;47.576;19.270;2023-05-22T01:36:23;98861.22;;;14.19;92.74
71059;BME280;70265;47.576;19.270;2023-05-22T01:37:26;98862.75;;;14.13;93.01
71059;BME280;70265;47.576;19.270;2023-05-22T01:38:30;98861.09;;;14.12;93.18
71059;BME280;70265;47.576;19.270;2023-05-22T01:39:33;98859.50;;;14.03;93.89
71059;BME280;70265;47.576;19.270;2023-05-22T01:40:37;98865.78;;;14.02;94.10
71059;BME280;70265;47.576;19.270;2023-05-22T01:41:39;98858.88;;;14.01;94.29
71059;BME280;70265;47.576;19.270;2023-05-22T01:42:44;98859.19;;;13.98;94.70
71059;BME280;70265;47.576;19.270;2023-05-22T01:43:45;98856.91;;;13.95;95.05
71059;BME280;70265;47.576;19.270;2023-05-22T01:44:49;98861.94;;;13.82;96.66
71059;BME280;70265;47.576;19.270;2023-05-22T01:45:53;98862.97;;;13.73;97.41
71059;BME280;70265;47.576;19.270;2023-05-22T01:46:57;98854.56;;;13.77;96.67
71059;BME280;70265;47.576;19.270;2023-05-22T01:48:00;98855.69;;;13.75;97.16
71059;BME280;70265;47.576;19.270;2023-05-22T01:49:03;98847.75;;;13.52;99.27
71059;BME280;70265;47.576;19.270;2023-05-22T01:50:06;98842.84;;;13.41;100.00
71059;BME280;70265;47.576;19.270;2023-05-22T01:51:14;98848.09;;;13.49;98.92
71059;BME280;70265;47.576;19.270;2023-05-22T01:52:25;98847.25;;;13.57;98.53
71059;BME280;70265;47.576;19.270;2023-05-22T01:53:34;98845.09;;;13.60;98.38
71059;BME280;70265;47.576;19.270;2023-05-22T01:54:43;98851.81;;;13.63;98.35
71059;BME280;70265;47.576;19.270;2023-05-22T01:55:57;98845.91;;;13.14;100.00
71059;BME280;70265;47.576;19.270;2023-05-22T01:57:04;98839.16;;;13.19;100.00
71059;BME280;70265;47.576;19.270;2023-05-22T01:58:15;98835.69;;;13.19;100.00
71059;BME280;70265;47.576;19.270;2023-05-22T01:59:26;98840.63;;;13.14;100.00
71059;BME280;70265;47.576;19.270;2023-05-22T02:00:34;98835.56;;;13.12;100.00
71059;BME280;70265;47.576;19.270;2023-05-22T02:01:40;98843.63;;;13.11;100.00
71059;BME280;70265;47.576;19.270;2023-05-22T02:02:47;98836.53;;;13.11;100.00
71059;BME280;70265;47.576;19.270;2023-05-22T02:03:54;98833.56;;;13.14;100.00
71059;BME280;70265;47.576;19.270;2023-05-22T02:04:59;98841.81;;;13.11;100.00
71059;BME280;70265;47.576;19.270;2023-05-22T02:06:05;98844.06;;;13.06;100.00
71059;BME280;70265;47.576;19.270;2023-05-22T02:07:11;98839.63;;;13.07;100.00
71059;BME280;70265;47.576;19.270;2023-05-22T02:08:13;98844.91;;;13.07;100.00
71059;BME280;70265;47.576;19.270;2023-05-22T02:09:20;98837.53;;;13.02;100.00
71059;BME280;70265;47.576;19.270;2023-05-22T02:10:24;98836.53;;;13.11;100.00
71059;BME280;70265;47.576;19.270;2023-05-22T02:11:31;98832.72;;;13.22;100.00
71059;BME280;70265;47.576;19.270;2023-05-22T02:12:34;98839.59;;;13.31;99.10
71059;BME280;70265;47.576;19.270;2023-05-22T02:13:39;98829.38;;;13.36;98.42
71059;BME280;70265;47.576;19.270;2023-05-22T02:14:41;98828.84;;;13.41;97.30
71059;BME280;70265;47.576;19.270;2023-05-22T02:15:45;98832.63;;;13.46;95.76
71059;BME280;70265;47.576;19.270;2023-05-22T02:16:49;98827.31;;;13.54;94.38
71059;BME280;70265;47.576;19.270;2023-05-22T02:17:53;98833.88;;;13.58;94.28
71059;BME280;70265;47.576;19.270;2023-05-22T02:18:58;98828.94;;;13.63;93.83
71059;BME280;70265;47.576;19.270;2023-05-22T02:20:17;98828.72;;;13.73;91.65
71059;BME280;70265;47.576;19.270;2023-05-22T02:21:21;98830.00;;;13.77;90.87
71059;BME280;70265;47.576;19.270;2023-05-22T02:22:24;98825.38;;;13.79;90.69
71059;BME280;70265;47.576;19.270;2023-05-22T02:23:26;98832.94;;;13.82;90.83
71059;BME280;70265;47.576;19.270;2023-05-22T02:24:31;98836.38;;;13.83;90.38
71059;BME280;70265;47.576;19.270;2023-05-22T02:25:32;98829.94;;;13.85;90.10
71059;BME280;70265;47.576;19.270;2023-05-22T02:26:36;98830.75;;;13.86;90.26
71059;BME280;70265;47.576;19.270;2023-05-22T02:27:37;98833.59;;;13.84;90.25
71059;BME280;70265;47.576;19.270;2023-05-22T02:28:41;98836.22;;;13.84;90.12
71059;BME280;70265;47.576;19.270;2023-05-22T02:29:45;98833.94;;;13.81;91.28
71059;BME280;70265;47.576;19.270;2023-05-22T02:30:46;98843.19;;;13.77;92.12
71059;BME280;70265;47.576;19.270;2023-05-22T02:31:52;98831.16;;;13.74;91.90
71059;BME280;70265;47.576;19.270;2023-05-22T02:32:54;98831.81;;;13.76;91.26
71059;BME280;70265;47.576;19.270;2023-05-22T02:33:59;98833.94;;;13.81;89.38
71059;BME280;70265;47.576;19.270;2023-05-22T02:35:08;98829.94;;;13.85;89.01
71059;BME280;70265;47.576;19.270;2023-05-22T02:36:12;98830.41;;;13.89;88.60
71059;BME280;70265;47.576;19.270;2023-05-22T02:37:14;98829.28;;;13.91;88.39
71059;BME280;70265;47.576;19.270;2023-05-22T02:38:17;98834.34;;;13.93;88.24
71059;BME280;70265;47.576;19.270;2023-05-22T02:39:18;98835.34;;;13.92;87.51
71059;BME280;70265;47.576;19.270;2023-05-22T02:40:22;98833.25;;;13.87;86.87
71059;BME280;70265;47.576;19.270;2023-05-22T02:41:24;98832.22;;;13.88;87.14
71059;BME280;70265;47.576;19.270;2023-05-22T02:42:27;98825.81;;;13.91;86.31
71059;BME280;70265;47.576;19.270;2023-05-22T02:43:28;98827.16;;;13.87;86.44
71059;BME280;70265;47.576;19.270;2023-05-22T02:44:32;98831.25;;;13.89;86.11
71059;BME280;70265;47.576;19.270;2023-05-22T02:45:33;98821.53;;;13.90;86.03
71059;BME280;70265;47.576;19.270;2023-05-22T02:46:37;98820.53;;;13.91;86.46
71059;BME280;70265;47.576;19.270;2023-05-22T02:47:42;98822.16;;;13.92;86.23
71059;BME280;70265;47.576;19.270;2023-05-22T02:48:46;98818.88;;;13.90;86.29
71059;BME280;70265;47.576;19.270;2023-05-22T02:49:47;98823.66;;;13.94;86.20
71059;BME280;70265;47.576;19.270;2023-05-22T02:50:51;98828.56;;;13.97;86.55
71059;BME280;70265;47.576;19.270;2023-05-22T02:51:55;98828.09;;;13.94;86.43
71059;BME280;70265;47.576;19.270;2023-05-22T02:52:59;98820.53;;;13.91;86.95
71059;BME280;70265;47.576;19.270;2023-05-22T02:54:00;98826.63;;;13.91;86.38
71059;BME280;70265;47.576;19.270;2023-05-22T02:55:05;98829.28;;;13.91;86.22
71059;BME280;70265;47.576;19.270;2023-05-22T02:56:07;98816.41;;;13.88;87.06
71059;BME280;70265;47.576;19.270;2023-05-22T02:57:11;98818.56;;;13.85;86.97
71059;BME280;70265;47.576;19.270;2023-05-22T02:58:12;98821.22;;;13.85;87.33
71059;BME280;70265;47.576;19.270;2023-05-22T02:59:17;98820.88;;;13.88;87.10
71059;BME280;70265;47.576;19.270;2023-05-22T03:00:19;98817.59;;;13.86;87.13
71059;BME280;70265;47.576;19.270;2023-05-22T03:01:23;98816.75;;;13.85;87.55
71059;BME280;70265;47.576;19.270;2023-05-22T03:02:26;98815.66;;;13.80;88.37
71059;BME280;70265;47.576;19.270;2023-05-22T03:03:34;98817.47;;;13.79;88.88
71059;BME280;70265;47.576;19.270;2023-05-22T03:04:36;98816.47;;;13.80;88.68
71059;BME280;70265;47.576;19.270;2023-05-22T03:05:40;98813.00;;;13.80;89.01
71059;BME280;70265;47.576;19.270;2023-05-22T03:06:41;98816.63;;;13.78;89.23
71059;BME280;70265;47.576;19.270;2023-05-22T03:07:45;98818.28;;;13.80;89.47
71059;BME280;70265;47.576;19.270;2023-05-22T03:08:48;98817.13;;;13.82;89.25
71059;BME280;70265;47.576;19.270;2023-05-22T03:09:52;98817.13;;;13.82;89.22
71059;BME280;70265;47.576;19.270;2023-05-22T03:10:55;98816.94;;;13.84;89.20
71059;BME280;70265;47.576;19.270;2023-05-22T03:11:59;98819.75;;;13.82;89.49
71059;BME280;70265;47.576;19.270;2023-05-22T03:13:00;98813.66;;;13.82;90.11
71059;BME280;70265;47.576;19.270;2023-05-22T03:14:04;98813.66;;;13.82;90.03
71059;BME280;70265;47.576;19.270;2023-05-22T03:15:07;98818.28;;;13.80;90.66
71059;BME280;70265;47.576;19.270;2023-05-22T03:16:11;98817.31;;;13.81;90.52
71059;BME280;70265;47.576;19.270;2023-05-22T03:17:13;98816.63;;;13.78;90.85
71059;BME280;70265;47.576;19.270;2023-05-22T03:18:16;98818.28;;;13.80;90.43
71059;BME280;70265;47.576;19.270;2023-05-22T03:19:21;98820.09;;;13.79;90.91
71059;BME280;70265;47.576;19.270;2023-05-22T03:20:24;98821.75;;;13.80;90.44
71059;BME280;70265;47.576;19.270;2023-05-22T03:21:26;98814.31;;;13.84;90.47
71059;BME280;70265;47.576;19.270;2023-05-22T03:22:29;98815.31;;;13.83;90.85
71059;BME280;70265;47.576;19.270;2023-05-22T03:23:30;98809.69;;;13.86;90.11
71059;BME280;70265;47.576;19.270;2023-05-22T03:24:34;98810.97;;;13.90;90.18
71059;BME280;70265;47.576;19.270;2023-05-22T03:25:35;98809.63;;;13.94;89.37
71059;BME280;70265;47.576;19.270;2023-05-22T03:26:39;98815.19;;;13.99;89.00
71059;BME280;70265;47.576;19.270;2023-05-22T03:27:41;98809.56;;;14.02;88.91
71059;BME280;70265;47.576;19.270;2023-05-22T03:28:45;98815.31;;;14.05;88.45
71059;BME280;70265;47.576;19.270;2023-05-22T03:29:46;98810.69;;;14.07;88.09
71059;BME280;70265;47.576;19.270;2023-05-22T03:30:50;98812.16;;;14.10;87.89
71059;BME280;70265;47.576;19.270;2023-05-22T03:31:52;98813.44;;;14.14;87.22
71059;BME280;70265;47.576;19.270;2023-05-22T03:32:56;98822.00;;;14.16;87.15
71059;BME280;70265;47.576;19.270;2023-05-22T03:33:57;98819.19;;;14.17;87.12
71059;BME280;70265;47.576;19.270;2023-05-22T03:35:05;98818.00;;;14.20;86.83
71059;BME280;70265;47.576;19.270;2023-05-22T03:36:07;98820.28;;;14.23;86.76
71059;BME280;70265;47.576;19.270;2023-05-22T03:37:11;98818.84;;;14.20;87.49
71059;BME280;70265;47.576;19.270;2023-05-22T03:38:12;98816.47;;;14.25;86.92
71059;BME280;70265;47.576;19.270;2023-05-22T03:39:16;98820.97;;;14.25;87.01
71059;BME280;70265;47.576;19.270;2023-05-22T03:40:17;98823.41;;;14.26;86.79
71059;BME280;70265;47.576;19.270;2023-05-22T03:41:20;98821.59;;;14.27;86.59
71059;BME280;70265;47.576;19.270;2023-05-22T03:42:22;98814.50;;;14.27;86.44
71059;BME280;70265;47.576;19.270;2023-05-22T03:43:25;98822.06;;;14.31;86.77
71059;BME280;70265;47.576;19.270;2023-05-22T03:44:27;98817.75;;;14.29;87.01
71059;BME280;70265;47.576;19.270;2023-05-22T03:45:30;98817.59;;;14.31;86.64
71059;BME280;70265;47.576;19.270;2023-05-22T03:46:31;98821.22;;;14.30;86.67
71059;BME280;70265;47.576;19.270;2023-05-22T03:47:35;98821.91;;;14.32;86.62
71059;BME280;70265;47.576;19.270;2023-05-22T03:48:37;98813.16;;;14.32;86.50
71059;BME280;70265;47.576;19.270;2023-05-22T03:49:41;98812.31;;;14.31;86.98
71059;BME280;70265;47.576;19.270;2023-05-22T03:50:45;98812.31;;;14.31;86.77
71059;BME280;70265;47.576;19.270;2023-05-22T03:51:48;98818.44;;;14.32;86.64
71059;BME280;70265;47.576;19.270;2023-05-22T03:52:50;98810.88;;;14.28;86.85
71059;BME280;70265;47.576;19.270;2023-05-22T03:53:54;98809.69;;;14.31;86.67
71059;BME280;70265;47.576;19.270;2023-05-22T03:54:55;98808.03;;;14.30;86.54
71059;BME280;70265;47.576;19.270;2023-05-22T03:55:58;98800.94;;;14.31;86.89
71059;BME280;70265;47.576;19.270;2023-05-22T03:57:00;98806.06;;;14.32;86.83
71059;BME280;70265;47.576;19.270;2023-05-22T03:58:03;98807.34;;;14.36;85.79
71059;BME280;70265;47.576;19.270;2023-05-22T03:59:05;98803.72;;;14.37;85.81
71059;BME280;70265;47.576;19.270;2023-05-22T04:00:10;98803.38;;;14.40;85.45
71059;BME280;70265;47.576;19.270;2023-05-22T04:01:11;98799.75;;;14.41;85.40
71059;BME280;70265;47.576;19.270;2023-05-22T04:02:16;98797.72;;;14.43;85.37
71059;BME280;70265;47.576;19.270;2023-05-22T04:03:17;98805.28;;;14.46;84.71
71059;BME280;70265;47.576;19.270;2023-05-22T04:04:21;98809.56;;;14.47;84.65
71059;BME280;70265;47.576;19.270;2023-05-22T04:05:22;98805.94;;;14.48;84.31
71059;BME280;70265;47.576;19.270;2023-05-22T04:06:28;98802.28;;;14.49;84.87
71059;BME280;70265;47.576;19.270;2023-05-22T04:07:32;98806.56;;;14.50;84.84
71059;BME280;70265;47.576;19.270;2023-05-22T04:08:36;98808.03;;;14.53;84.06
71059;BME280;70265;47.576;19.270;2023-05-22T04:09:41;98801.59;;;14.55;82.93
71059;BME280;70265;47.576;19.270;2023-05-22T04:10:46;98799.78;;;14.56;83.62
71059;BME280;70265;47.576;19.270;2023-05-22T04:11:48;98804.88;;;14.57;83.89
71059;BME280;70265;47.576;19.270;2023-05-22T04:12:52;98803.50;;;14.61;82.82
71059;BME280;70265;47.576;19.270;2023-05-22T04:13:54;98804.81;;;14.65;82.43
71059;BME280;70265;47.576;19.270;2023-05-22T04:14:57;98806.09;;;14.69;83.17
71059;BME280;70265;47.576;19.270;2023-05-22T04:15:59;98802.25;;;14.72;82.29
71059;BME280;70265;47.576;19.270;2023-05-22T04:17:03;98797.91;;;14.79;81.83
71059;BME280;70265;47.576;19.270;2023-05-22T04:18:05;98801.81;;;14.83;82.05
71059;BME280;70265;47.576;19.270;2023-05-22T04:19:08;98811.00;;;14.87;82.12
71059;BME280;70265;47.576;19.270;2023-05-22T04:20:10;98805.34;;;14.90;82.64
71059;BME280;70265;47.576;19.270;2023-05-22T04:21:14;98809.09;;;14.96;82.26
71059;BME280;70265;47.576;19.270;2023-05-22T04:22:19;98809.56;;;14.99;81.60
71059;BME280;70265;47.576;19.270;2023-05-22T04:23:23;98802.72;;;15.05;81.63
71059;BME280;70265;47.576;19.270;2023-05-22T04:24:24;98798.72;;;15.09;81.63
71059;BME280;70265;47.576;19.270;2023-05-22T04:25:31;98801.44;;;15.15;82.21
71059;BME280;70265;47.576;19.270;2023-05-22T04:26:33;98805.19;;;15.21;81.82
71059;BME280;70265;47.576;19.270;2023-05-22T04:27:37;98804.47;;;15.27;81.26
71059;BME280;70265;47.576;19.270;2023-05-22T04:28:39;98803.06;;;15.31;81.29
71059;BME280;70265;47.576;19.270;2023-05-22T04:29:45;98803.34;;;15.36;79.93
71059;BME280;70265;47.576;19.270;2023-05-22T04:30:46;98798.31;;;15.41;80.15
71059;BME280;70265;47.576;19.270;2023-05-22T04:31:51;98805.53;;;15.47;80.58
71059;BME280;70265;47.576;19.270;2023-05-22T04:32:53;98801.56;;;15.51;79.69
71059;BME280;70265;47.576;19.270;2023-05-22T04:33:57;98801.81;;;15.56;80.01
71059;BME280;70265;47.576;19.270;2023-05-22T04:34:59;98801.25;;;15.61;79.20
71059;BME280;70265;47.576;19.270;2023-05-22T04:36:12;98803.97;;;15.67;80.09
71059;BME280;70265;47.576;19.270;2023-05-22T04:37:13;98799.50;;;15.68;78.02
71059;BME280;70265;47.576;19.270;2023-05-22T04:38:20;98803.84;;;15.75;80.38
71059;BME280;70265;47.576;19.270;2023-05-22T04:39:21;98802.47;;;15.79;79.75
71059;BME280;70265;47.576;19.270;2023-05-22T04:40:25;98800.47;;;15.82;77.47
71059;BME280;70265;47.576;19.270;2023-05-22T04:41:27;98798.81;;;15.81;78.54
71059;BME280;70265;47.576;19.270;2023-05-22T04:42:32;98798.44;;;15.84;77.72
71059;BME280;70265;47.576;19.270;2023-05-22T04:43:34;98800.91;;;15.85;76.89
71059;BME280;70265;47.576;19.270;2023-05-22T04:44:38;98799.88;;;15.86;77.22
71059;BME280;70265;47.576;19.270;2023-05-22T04:45:39;98797.69;;;15.90;76.75
71059;BME280;70265;47.576;19.270;2023-05-22T04:46:44;98796.94;;;15.96;76.87
71059;BME280;70265;47.576;19.270;2023-05-22T04:47:45;98795.75;;;15.98;76.22
71059;BME280;70265;47.576;19.270;2023-05-22T04:48:49;98798.47;;;16.05;76.97
71059;BME280;70265;47.576;19.270;2023-05-22T04:49:50;98798.31;;;16.13;76.88
71059;BME280;70265;47.576;19.270;2023-05-22T04:50:54;98802.06;;;16.18;76.13
71059;BME280;70265;47.576;19.270;2023-05-22T04:51:57;98796.44;;;16.28;76.48
71059;BME280;70265;47.576;19.270;2023-05-22T04:53:05;98803.44;;;16.36;75.99
71059;BME280;70265;47.576;19.270;2023-05-22T04:54:09;98801.84;;;16.41;75.59
71059;BME280;70265;47.576;19.270;2023-05-22T04:55:13;98794.94;;;16.47;75.02
71059;BME280;70265;47.576;19.270;2023-05-22T04:56:14;98797.88;;;16.52;75.53
71059;BME280;70265;47.576;19.270;2023-05-22T04:57:18;98792.81;;;16.57;75.33
71059;BME280;70265;47.576;19.270;2023-05-22T04:58:20;98797.56;;;16.61;74.38
71059;BME280;70265;47.576;19.270;2023-05-22T04:59:26;98790.88;;;16.65;74.19
71059;BME280;70265;47.576;19.270;2023-05-22T05:00:27;98787.66;;;16.70;74.16
71059;BME280;70265;47.576;19.270;2023-05-22T05:01:31;98787.66;;;16.70;72.22
71059;BME280;70265;47.576;19.270;2023-05-22T05:02:34;98787.25;;;16.73;73.10
71059;BME280;70265;47.576;19.270;2023-05-22T05:03:38;98784.41;;;16.74;73.62
71059;BME280;70265;47.576;19.270;2023-05-22T05:04:39;98788.69;;;16.75;75.42
71059;BME280;70265;47.576;19.270;2023-05-22T05:05:43;98793.59;;;16.78;74.88
71059;BME280;70265;47.576;19.270;2023-05-22T05:06:44;98791.97;;;16.77;75.38
71059;BME280;70265;47.576;19.270;2023-05-22T05:07:48;98795.03;;;16.81;75.07
71059;BME280;70265;47.576;19.270;2023-05-22T05:08:49;98797.69;;;16.81;74.43
71059;BME280;70265;47.576;19.270;2023-05-22T05:09:56;98795.03;;;16.81;75.09
71059;BME280;70265;47.576;19.270;2023-05-22T05:10:57;98800.97;;;16.83;75.45
71059;BME280;70265;47.576;19.270;2023-05-22T05:12:01;98801.81;;;16.84;75.01
71059;BME280;70265;47.576;19.270;2023-05-22T05:13:02;98801.38;;;16.80;74.34
71059;BME280;70265;47.576;19.270;2023-05-22T05:14:06;98804.19;;;16.78;74.13
71059;BME280;70265;47.576;19.270;2023-05-22T05:15:08;98803.19;;;16.79;74.21
71059;BME280;70265;47.576;19.270;2023-05-22T05:16:13;98805.03;;;16.79;73.62
71059;BME280;70265;47.576;19.270;2023-05-22T05:17:14;98809.50;;;16.78;73.24
71059;BME280;70265;47.576;19.270;2023-05-22T05:18:17;98809.09;;;16.82;73.02
71059;BME280;70265;47.576;19.270;2023-05-22T05:19:24;98828.31;;;16.84;71.12
71059;BME280;70265;47.576;19.270;2023-05-22T05:20:25;98826.75;;;16.96;72.96
71059;BME280;70265;47.576;19.270;2023-05-22T05:21:30;98830.09;;;17.11;68.17
71059;BME280;70265;47.576;19.270;2023-05-22T05:22:31;98831.34;;;17.15;69.58
71059;BME280;70265;47.576;19.270;2023-05-22T05:23:35;98838.28;;;17.16;69.56
71059;BME280;70265;47.576;19.270;2023-05-22T05:24:36;98843.00;;;17.20;71.12
71059;BME280;70265;47.576;19.270;2023-05-22T05:25:43;98840.44;;;17.34;70.96
71059;BME280;70265;47.576;19.270;2023-05-22T05:26:46;98836.00;;;17.47;70.26
71059;BME280;70265;47.576;19.270;2023-05-22T05:27:48;98836.03;;;17.54;67.71
71059;BME280;70265;47.576;19.270;2023-05-22T05:28:51;98836.84;;;17.54;63.05
71059;BME280;70265;47.576;19.270;2023-05-22T05:29:53;98834.84;;;17.56;66.02
71059;BME280;70265;47.576;19.270;2023-05-22T05:30:56;98834.84;;;17.56;70.38
71059;BME280;70265;47.576;19.270;2023-05-22T05:32:01;98841.34;;;17.54;68.07
71059;BME280;70265;47.576;19.270;2023-05-22T05:33:03;98847.94;;;17.58;68.24
71059;BME280;70265;47.576;19.270;2023-05-22T05:34:07;98845.31;;;17.64;67.88
71059;BME280;70265;47.576;19.270;2023-05-22T05:35:09;98852.03;;;17.67;67.07
71059;BME280;70265;47.576;19.270;2023-05-22T05:36:13;98845.69;;;17.61;66.38
71059;BME280;70265;47.576;19.270;2023-05-22T05:37:14;98850.38;;;17.66;67.80
71059;BME280;70265;47.576;19.270;2023-05-22T05:38:18;98847.38;;;17.69;68.60